createdAt,value
2023-01-13T00:00:11.083Z,24.56
2023-01-13T00:01:15.073Z,27.40
2023-01-13T00:02:11.148Z,16.76
2023-01-13T00:03:11.071Z,23.42
2023-01-13T00:04:11.074Z,16.80
2023-01-13T00:05:11.067Z,21.02
2023-01-13T00:06:16.067Z,21.16
2023-01-13T00:07:11.076Z,26.88
2023-01-13T00:08:11.073Z,16.82
2023-01-13T00:09:11.066Z,24.18
2023-01-13T00:10:11.133Z,20.64
2023-01-13T00:11:11.074Z,23.12
2023-01-13T00:12:11.065Z,18.82
2023-01-13T00:13:11.070Z,14.00
2023-01-13T00:14:11.070Z,16.94
2023-01-13T00:15:11.069Z,30.92
2023-01-13T00:16:12.205Z,11.40
2023-01-13T00:17:11.069Z,28.26
2023-01-13T00:18:11.067Z,24.94
2023-01-13T00:19:11.072Z,27.98
2023-01-13T00:20:11.068Z,21.26
2023-01-13T00:21:13.069Z,26.86
2023-01-13T00:22:11.074Z,17.94
2023-01-13T00:23:11.072Z,25.70
2023-01-13T00:24:11.069Z,22.82
2023-01-13T00:25:11.069Z,15.00
2023-01-13T00:26:14.069Z,20.62
2023-01-13T00:27:11.074Z,17.90
2023-01-13T00:28:11.079Z,23.38
2023-01-13T00:29:11.071Z,20.48
2023-01-13T00:30:11.074Z,21.74
2023-01-13T00:31:16.322Z,10.54
2023-01-13T00:32:11.072Z,14.86
2023-01-13T00:33:11.070Z,15.10
2023-01-13T00:34:11.078Z,14.18
2023-01-13T00:35:11.084Z,13.56
2023-01-13T00:36:13.094Z,23.42
2023-01-13T00:37:11.074Z,25.14
2023-01-13T00:38:11.077Z,23.88
2023-01-13T00:39:11.069Z,18.90
2023-01-13T00:40:11.070Z,9.44
2023-01-13T00:41:13.079Z,26.48
2023-01-13T00:42:15.070Z,19.08
2023-01-13T00:43:15.076Z,17.00
2023-01-13T00:44:11.084Z,39.28
2023-01-13T00:45:11.072Z,26.16
2023-01-13T00:46:11.137Z,16.12
2023-01-13T00:47:11.069Z,20.08
2023-01-13T00:48:13.072Z,16.92
2023-01-13T00:49:11.069Z,19.10
2023-01-13T00:50:11.092Z,17.38
2023-01-13T00:51:12.075Z,21.32
2023-01-13T00:52:12.067Z,21.24
2023-01-13T00:53:11.067Z,22.04
2023-01-13T00:54:11.072Z,27.04
2023-01-13T00:55:11.067Z,15.92
2023-01-13T00:56:13.073Z,22.20
2023-01-13T00:57:11.072Z,21.68
2023-01-13T00:58:11.071Z,16.76
2023-01-13T00:59:12.068Z,15.10
2023-01-13T01:00:11.079Z,17.24
2023-01-13T01:01:18.202Z,11.98
2023-01-13T01:02:11.272Z,22.90
2023-01-13T01:03:15.065Z,17.60
2023-01-13T01:04:11.069Z,21.26
2023-01-13T01:05:11.066Z,12.42
2023-01-13T01:06:18.061Z,11.48
2023-01-13T01:07:11.068Z,22.74
2023-01-13T01:08:11.056Z,18.34
2023-01-13T01:09:12.068Z,19.64
2023-01-13T01:10:11.069Z,18.08
2023-01-13T01:11:11.063Z,24.10
2023-01-13T01:12:11.058Z,19.20
2023-01-13T01:13:11.065Z,15.04
2023-01-13T01:14:11.057Z,16.92
2023-01-13T01:15:11.074Z,18.78
2023-01-13T01:16:12.135Z,14.98
2023-01-13T01:17:11.059Z,13.68
2023-01-13T01:18:11.064Z,19.04
2023-01-13T01:19:11.082Z,18.68
2023-01-13T01:20:11.061Z,22.78
2023-01-13T01:21:11.057Z,20.04
2023-01-13T01:22:11.068Z,12.76
2023-01-13T01:23:11.059Z,17.60
2023-01-13T01:24:11.071Z,22.82
2023-01-13T01:25:11.063Z,19.38
2023-01-13T01:26:16.058Z,24.54
2023-01-13T01:27:11.057Z,20.60
2023-01-13T01:28:11.057Z,20.66
2023-01-13T01:29:12.070Z,18.98
2023-01-13T01:30:11.066Z,21.22
2023-01-13T01:31:19.078Z,19.04
2023-01-13T01:32:11.066Z,29.70
2023-01-13T01:33:11.061Z,19.06
2023-01-13T01:34:11.066Z,18.98
2023-01-13T01:35:11.066Z,21.96
2023-01-13T01:36:11.061Z,16.96
2023-01-13T01:37:11.057Z,18.00
2023-01-13T01:38:11.061Z,20.82
2023-01-13T01:39:11.061Z,21.22
2023-01-13T01:40:11.060Z,16.22
2023-01-13T01:41:13.064Z,21.52
2023-01-13T01:42:16.062Z,25.84
2023-01-13T01:43:19.067Z,19.66
2023-01-13T01:44:19.070Z,27.98
2023-01-13T01:45:18.069Z,23.14
2023-01-13T01:46:11.063Z,23.64
2023-01-13T01:47:11.075Z,21.86
2023-01-13T01:48:11.061Z,19.96
2023-01-13T01:49:19.064Z,16.98
2023-01-13T01:50:11.062Z,19.72
2023-01-13T01:51:13.055Z,18.28
2023-01-13T01:52:14.064Z,21.18
2023-01-13T01:53:18.078Z,17.30
2023-01-13T01:54:14.059Z,19.92
2023-01-13T01:55:17.066Z,9.40
2023-01-13T01:56:11.065Z,23.48
2023-01-13T01:57:13.066Z,19.72
2023-01-13T01:58:19.059Z,24.80
2023-01-13T01:59:11.062Z,18.28
2023-01-13T02:00:11.075Z,13.34
2023-01-13T02:01:11.239Z,24.50
2023-01-13T02:02:11.166Z,27.58
2023-01-13T02:03:11.080Z,20.86
2023-01-13T02:04:16.068Z,23.76
2023-01-13T02:05:11.066Z,15.58
2023-01-13T02:06:11.072Z,14.96
2023-01-13T02:07:11.065Z,17.70
2023-01-13T02:08:12.064Z,22.60
2023-01-13T02:09:11.071Z,15.66
2023-01-13T02:10:12.063Z,18.10
2023-01-13T02:11:15.066Z,27.82
2023-01-13T02:12:15.069Z,19.36
2023-01-13T02:13:12.063Z,21.92
2023-01-13T02:14:11.062Z,16.98
2023-01-13T02:15:19.078Z,21.68
2023-01-13T02:16:16.104Z,20.10
2023-01-13T02:17:19.060Z,22.50
2023-01-13T02:18:19.060Z,20.08
2023-01-13T02:19:19.066Z,22.36
2023-01-13T02:20:19.085Z,22.60
2023-01-13T02:21:19.066Z,24.04
2023-01-13T02:22:19.061Z,22.70
2023-01-13T02:23:19.059Z,23.72
2023-01-13T02:24:23.063Z,20.26
2023-01-13T02:25:21.075Z,25.04
2023-01-13T02:26:19.063Z,20.52
2023-01-13T02:27:19.064Z,15.20
2023-01-13T02:28:21.063Z,22.62
2023-01-13T02:29:23.063Z,24.20
2023-01-13T02:30:23.069Z,20.02
2023-01-13T02:31:16.099Z,18.22
2023-01-13T02:32:18.074Z,16.76
2023-01-13T02:33:19.068Z,11.70
2023-01-13T02:34:19.063Z,18.10
2023-01-13T02:35:19.073Z,14.32
2023-01-13T02:36:23.064Z,15.70
2023-01-13T02:37:21.064Z,26.06
2023-01-13T02:38:12.066Z,28.62
2023-01-13T02:39:18.072Z,19.56
2023-01-13T02:40:20.072Z,25.34
2023-01-13T02:41:24.070Z,21.10
2023-01-13T02:42:20.067Z,22.14
2023-01-13T02:43:22.062Z,22.06
2023-01-13T02:44:12.072Z,15.52
2023-01-13T02:45:16.068Z,17.06
2023-01-13T02:46:15.068Z,22.60
2023-01-13T02:47:13.064Z,25.42
2023-01-13T02:48:11.063Z,18.54
2023-01-13T02:49:14.073Z,19.88
2023-01-13T02:50:14.072Z,21.76
2023-01-13T02:51:14.067Z,20.68
2023-01-13T02:52:17.075Z,19.92
2023-01-13T02:53:20.065Z,18.82
2023-01-13T02:54:14.067Z,15.70
2023-01-13T02:55:18.066Z,21.36
2023-01-13T02:56:11.065Z,14.62
2023-01-13T02:57:11.068Z,14.78
2023-01-13T02:58:12.074Z,19.30
2023-01-13T02:59:11.068Z,17.34
2023-01-13T03:00:12.069Z,26.42
2023-01-13T03:01:11.170Z,13.28
2023-01-13T03:02:12.287Z,17.14
2023-01-13T03:03:11.072Z,20.12
2023-01-13T03:04:19.067Z,16.68
2023-01-13T03:05:14.070Z,18.60
2023-01-13T03:06:21.076Z,12.64
2023-01-13T03:07:19.071Z,20.22
2023-01-13T03:08:21.068Z,15.82
2023-01-13T03:09:19.081Z,28.08
2023-01-13T03:10:21.078Z,17.62
2023-01-13T03:11:14.069Z,20.56
2023-01-13T03:12:22.071Z,19.68
2023-01-13T03:13:19.071Z,13.38
2023-01-13T03:14:21.073Z,19.96
2023-01-13T03:15:21.073Z,18.04
2023-01-13T03:16:21.153Z,16.58
2023-01-13T03:17:21.095Z,15.16
2023-01-13T03:18:19.084Z,15.76
2023-01-13T03:19:19.073Z,15.72
2023-01-13T03:20:19.074Z,19.08
2023-01-13T03:21:19.067Z,25.12
2023-01-13T03:22:19.086Z,15.88
2023-01-13T03:23:21.071Z,27.08
2023-01-13T03:24:19.072Z,12.44
2023-01-13T03:25:19.072Z,13.38
2023-01-13T03:26:16.070Z,16.28
2023-01-13T03:27:19.075Z,14.52
2023-01-13T03:28:20.072Z,11.98
2023-01-13T03:29:21.072Z,20.00
2023-01-13T03:30:21.067Z,17.60
2023-01-13T03:31:16.075Z,21.56
2023-01-13T03:32:17.080Z,16.22
2023-01-13T03:33:23.073Z,18.66
2023-01-13T03:34:16.071Z,13.34
2023-01-13T03:35:21.070Z,18.26
2023-01-13T03:36:12.066Z,16.26
2023-01-13T03:37:11.075Z,13.92
2023-01-13T03:38:18.070Z,12.34
2023-01-13T03:39:15.068Z,21.20
2023-01-13T03:40:18.073Z,15.10
2023-01-13T03:41:21.070Z,14.50
2023-01-13T03:42:13.071Z,20.86
2023-01-13T03:43:19.082Z,16.88
2023-01-13T03:44:24.073Z,26.82
2023-01-13T03:45:15.077Z,17.80
2023-01-13T03:46:18.154Z,16.36
2023-01-13T03:47:21.071Z,11.74
2023-01-13T03:48:16.085Z,14.16
2023-01-13T03:49:13.074Z,9.94
2023-01-13T03:50:17.097Z,15.06
2023-01-13T03:51:13.071Z,12.34
2023-01-13T03:52:13.071Z,20.40
2023-01-13T03:53:17.074Z,14.50
2023-01-13T03:54:13.072Z,14.78
2023-01-13T03:55:17.096Z,11.38
2023-01-13T03:56:20.101Z,11.66
2023-01-13T03:57:12.086Z,11.80
2023-01-13T03:58:18.129Z,18.10
2023-01-13T03:59:15.074Z,13.10
2023-01-13T04:00:12.070Z,14.42
2023-01-13T04:01:18.213Z,13.68
2023-01-13T04:02:18.163Z,11.04
2023-01-13T04:03:17.064Z,13.94
2023-01-13T04:04:18.069Z,9.28
2023-01-13T04:05:11.060Z,12.36
2023-01-13T04:06:17.091Z,10.30
2023-01-13T04:07:19.062Z,8.64
2023-01-13T04:08:20.071Z,13.94
2023-01-13T04:09:21.072Z,11.76
2023-01-13T04:10:11.074Z,10.20
2023-01-13T04:11:17.061Z,11.20
2023-01-13T04:12:14.080Z,9.58
2023-01-13T04:13:14.062Z,10.16
2023-01-13T04:14:11.063Z,10.34
2023-01-13T04:15:11.065Z,8.12
2023-01-13T04:16:11.098Z,7.44
2023-01-13T04:17:11.066Z,5.96
2023-01-13T04:18:19.082Z,11.22
2023-01-13T04:19:11.075Z,11.44
2023-01-13T04:20:11.068Z,9.74
2023-01-13T04:21:11.067Z,12.26
2023-01-13T04:22:11.079Z,13.34
2023-01-13T04:23:11.066Z,9.38
2023-01-13T04:24:11.090Z,8.68
2023-01-13T04:25:11.074Z,11.02
2023-01-13T04:26:11.061Z,11.56
2023-01-13T04:27:11.064Z,11.90
2023-01-13T04:28:11.080Z,6.34
2023-01-13T04:29:11.061Z,6.04
2023-01-13T04:30:11.075Z,12.52
2023-01-13T04:31:11.231Z,11.12
2023-01-13T04:32:11.062Z,9.44
2023-01-13T04:33:11.068Z,11.04
2023-01-13T04:34:11.074Z,8.78
2023-01-13T04:35:11.062Z,7.16
2023-01-13T04:36:11.059Z,6.46
2023-01-13T04:37:11.072Z,10.64
2023-01-13T04:38:15.063Z,6.52
2023-01-13T04:39:11.064Z,4.80
2023-01-13T04:40:11.079Z,7.34
2023-01-13T04:41:11.065Z,8.12
2023-01-13T04:42:11.062Z,8.52
2023-01-13T04:43:11.073Z,7.20
2023-01-13T04:44:11.079Z,6.34
2023-01-13T04:45:11.064Z,9.74
2023-01-13T04:46:11.105Z,6.04
2023-01-13T04:47:11.070Z,5.08
2023-01-13T04:48:11.066Z,7.06
2023-01-13T04:49:11.066Z,6.68
2023-01-13T04:50:11.078Z,6.78
2023-01-13T04:51:11.060Z,5.08
2023-01-13T04:52:11.076Z,4.52
2023-01-13T04:53:11.065Z,8.12
2023-01-13T04:54:11.069Z,6.00
2023-01-13T04:55:11.076Z,8.56
2023-01-13T04:56:11.075Z,6.30
2023-01-13T04:57:11.067Z,5.32
2023-01-13T04:58:11.064Z,4.72
2023-01-13T04:59:11.069Z,4.20
2023-01-13T05:00:11.064Z,10.22
2023-01-13T05:01:11.235Z,6.62
2023-01-13T05:02:12.127Z,10.78
2023-01-13T05:03:11.065Z,6.56
2023-01-13T05:04:11.066Z,6.62
2023-01-13T05:05:11.070Z,2.40
2023-01-13T05:06:11.066Z,6.36
2023-01-13T05:07:11.069Z,7.08
2023-01-13T05:08:11.078Z,6.48
2023-01-13T05:09:11.066Z,5.66
2023-01-13T05:10:11.067Z,5.76
2023-01-13T05:11:15.067Z,5.28
2023-01-13T05:12:15.067Z,12.00
2023-01-13T05:13:15.067Z,4.10
2023-01-13T05:14:15.082Z,8.32
2023-01-13T05:15:15.067Z,7.26
2023-01-13T05:16:15.117Z,6.74
2023-01-13T05:17:12.075Z,5.10
2023-01-13T05:18:11.083Z,4.32
2023-01-13T05:19:11.065Z,5.16
2023-01-13T05:20:11.072Z,10.20
2023-01-13T05:21:15.074Z,9.86
2023-01-13T05:22:15.069Z,8.88
2023-01-13T05:23:15.066Z,9.10
2023-01-13T05:24:15.067Z,6.64
2023-01-13T05:25:15.082Z,14.44
2023-01-13T05:26:11.069Z,4.70
2023-01-13T05:27:11.079Z,5.14
2023-01-13T05:28:11.078Z,3.24
2023-01-13T05:29:11.075Z,7.00
2023-01-13T05:30:11.065Z,10.46
2023-01-13T05:31:11.126Z,7.64
2023-01-13T05:32:12.078Z,2.96
2023-01-13T05:33:12.072Z,4.50
2023-01-13T05:34:11.071Z,4.14
2023-01-13T05:35:11.075Z,4.28
2023-01-13T05:36:11.066Z,7.32
2023-01-13T05:37:11.078Z,4.98
2023-01-13T05:38:11.075Z,4.52
2023-01-13T05:39:11.067Z,3.04
2023-01-13T05:40:15.066Z,6.12
2023-01-13T05:41:15.087Z,7.10
2023-01-13T05:42:15.071Z,6.88
2023-01-13T05:43:17.069Z,7.96
2023-01-13T05:44:11.066Z,9.32
2023-01-13T05:45:11.075Z,6.30
2023-01-13T05:46:11.092Z,6.40
2023-01-13T05:47:11.066Z,5.18
2023-01-13T05:48:11.082Z,5.78
2023-01-13T05:49:11.071Z,10.60
2023-01-13T05:50:11.065Z,5.42
2023-01-13T05:51:12.087Z,2.64
2023-01-13T05:52:11.073Z,6.28
2023-01-13T05:53:11.066Z,4.50
2023-01-13T05:54:11.073Z,5.84
2023-01-13T05:55:11.070Z,5.60
2023-01-13T05:56:11.076Z,7.26
2023-01-13T05:57:11.073Z,5.72
2023-01-13T05:58:11.074Z,6.28
2023-01-13T05:59:11.065Z,4.22
2023-01-13T06:00:11.073Z,5.78
2023-01-13T06:01:11.110Z,3.92
2023-01-13T06:02:11.067Z,6.80
2023-01-13T06:03:11.159Z,3.30
2023-01-13T06:04:11.131Z,4.14
2023-01-13T06:05:11.072Z,4.36
2023-01-13T06:06:12.079Z,3.04
2023-01-13T06:07:11.071Z,5.74
2023-01-13T06:08:11.086Z,12.58
2023-01-13T06:09:11.080Z,3.38
2023-01-13T06:10:11.072Z,3.60
2023-01-13T06:11:11.075Z,6.28
2023-01-13T06:12:12.076Z,6.76
2023-01-13T06:13:11.077Z,6.32
2023-01-13T06:14:11.071Z,4.92
2023-01-13T06:15:11.069Z,3.38
2023-01-13T06:16:11.133Z,5.38
2023-01-13T06:17:13.070Z,5.18
2023-01-13T06:18:11.073Z,3.10
2023-01-13T06:19:13.105Z,3.30
2023-01-13T06:20:12.072Z,6.10
2023-01-13T06:21:11.074Z,5.66
2023-01-13T06:22:21.073Z,8.98
2023-01-13T06:23:11.078Z,6.04
2023-01-13T06:24:11.079Z,4.82
2023-01-13T06:25:17.080Z,4.82
2023-01-13T06:26:15.073Z,8.86
2023-01-13T06:27:11.072Z,3.96
2023-01-13T06:28:11.078Z,6.14
2023-01-13T06:29:11.076Z,3.22
2023-01-13T06:30:11.069Z,7.44
2023-01-13T06:31:11.173Z,6.90
2023-01-13T06:32:16.075Z,4.20
2023-01-13T06:33:14.077Z,9.48
2023-01-13T06:34:11.073Z,3.52
2023-01-13T06:35:13.081Z,9.08
2023-01-13T06:36:20.079Z,5.92
2023-01-13T06:37:12.070Z,7.72
2023-01-13T06:38:12.077Z,4.86
2023-01-13T06:39:11.074Z,3.72
2023-01-13T06:40:11.078Z,5.42
2023-01-13T06:41:11.076Z,7.70
2023-01-13T06:42:15.089Z,10.12
2023-01-13T06:43:16.449Z,6.30
2023-01-13T06:44:11.074Z,5.74
2023-01-13T06:45:11.077Z,6.20
2023-01-13T06:46:11.077Z,4.20
2023-01-13T06:47:11.073Z,8.18
2023-01-13T06:48:11.077Z,2.46
2023-01-13T06:49:11.081Z,4.72
2023-01-13T06:50:11.075Z,8.24
2023-01-13T06:51:11.079Z,6.42
2023-01-13T06:52:11.075Z,7.94
2023-01-13T06:53:11.074Z,3.88
2023-01-13T06:54:11.088Z,5.52
2023-01-13T06:55:11.074Z,3.02
2023-01-13T06:56:11.077Z,4.36
2023-01-13T06:57:11.085Z,8.10
2023-01-13T06:58:11.078Z,5.96
2023-01-13T06:59:11.097Z,4.24
2023-01-13T07:00:11.064Z,5.16
2023-01-13T07:01:11.183Z,8.02
2023-01-13T07:02:11.205Z,5.82
2023-01-13T07:03:11.071Z,5.52
2023-01-13T07:04:11.058Z,8.86
2023-01-13T07:05:11.062Z,6.78
2023-01-13T07:06:11.071Z,6.08
2023-01-13T07:07:11.063Z,9.02
2023-01-13T07:08:11.070Z,12.72
2023-01-13T07:09:11.070Z,4.08
2023-01-13T07:10:12.057Z,7.62
2023-01-13T07:11:11.066Z,15.02
2023-01-13T07:12:11.071Z,7.32
2023-01-13T07:13:15.074Z,7.02
2023-01-13T07:14:15.071Z,4.34
2023-01-13T07:15:15.064Z,10.32
2023-01-13T07:16:11.114Z,3.82
2023-01-13T07:17:11.059Z,5.04
2023-01-13T07:18:11.079Z,10.66
2023-01-13T07:19:11.063Z,6.02
2023-01-13T07:20:11.060Z,8.08
2023-01-13T07:21:11.068Z,7.50
2023-01-13T07:22:13.064Z,7.94
2023-01-13T07:23:11.065Z,4.06
2023-01-13T07:24:11.068Z,8.20
2023-01-13T07:25:11.066Z,14.64
2023-01-13T07:26:11.061Z,10.52
2023-01-13T07:27:11.076Z,9.38
2023-01-13T07:28:11.072Z,11.40
2023-01-13T07:29:11.074Z,4.94
2023-01-13T07:30:11.073Z,9.74
2023-01-13T07:31:15.137Z,11.38
2023-01-13T07:32:11.067Z,14.92
2023-01-13T07:33:11.062Z,7.68
2023-01-13T07:34:11.068Z,10.72
2023-01-13T07:35:11.063Z,12.46
2023-01-13T07:36:11.097Z,7.70
2023-01-13T07:37:11.068Z,9.44
2023-01-13T07:38:11.066Z,8.86
2023-01-13T07:39:11.064Z,8.26
2023-01-13T07:40:11.066Z,7.44
2023-01-13T07:41:16.065Z,8.90
2023-01-13T07:42:15.064Z,6.40
2023-01-13T07:43:15.065Z,8.46
2023-01-13T07:44:11.117Z,7.12
2023-01-13T07:45:12.401Z,5.14
2023-01-13T07:46:11.090Z,8.80
2023-01-13T07:47:12.080Z,7.16
2023-01-13T07:48:11.083Z,4.12
2023-01-13T07:49:11.062Z,11.20
2023-01-13T07:50:11.085Z,8.38
2023-01-13T07:51:11.069Z,6.88
2023-01-13T07:52:11.065Z,6.24
2023-01-13T07:53:11.072Z,13.86
2023-01-13T07:54:11.073Z,14.04
2023-01-13T07:55:11.064Z,7.48
2023-01-13T07:56:11.080Z,11.94
2023-01-13T07:57:11.068Z,14.06
2023-01-13T07:58:11.067Z,8.48
2023-01-13T07:59:11.070Z,8.18
2023-01-13T08:00:12.858Z,11.38
2023-01-13T08:01:11.263Z,11.98
2023-01-13T08:02:13.372Z,13.04
2023-01-13T08:03:11.104Z,6.50
2023-01-13T08:04:11.066Z,9.82
2023-01-13T08:05:11.084Z,11.26
2023-01-13T08:06:11.068Z,7.88
2023-01-13T08:07:11.069Z,7.52
2023-01-13T08:08:11.067Z,7.00
2023-01-13T08:09:11.073Z,14.98
2023-01-13T08:10:11.069Z,11.60
2023-01-13T08:11:11.067Z,14.56
2023-01-13T08:12:15.092Z,7.70
2023-01-13T08:13:17.062Z,11.90
2023-01-13T08:14:11.070Z,7.10
2023-01-13T08:15:11.070Z,8.56
2023-01-13T08:16:13.115Z,13.36
2023-01-13T08:17:11.064Z,8.20
2023-01-13T08:18:11.074Z,9.94
2023-01-13T08:19:11.074Z,7.54
2023-01-13T08:20:11.065Z,13.58
2023-01-13T08:21:14.072Z,13.62
2023-01-13T08:22:11.067Z,14.98
2023-01-13T08:23:11.076Z,15.22
2023-01-13T08:24:12.069Z,9.66
2023-01-13T08:25:11.068Z,11.80
2023-01-13T08:26:12.071Z,9.04
2023-01-13T08:27:11.069Z,8.94
2023-01-13T08:28:11.067Z,11.54
2023-01-13T08:29:13.692Z,12.62
2023-01-13T08:30:11.072Z,6.98
2023-01-13T08:31:14.166Z,8.10
2023-01-13T08:32:11.067Z,16.52
2023-01-13T08:33:11.071Z,8.66
2023-01-13T08:34:11.070Z,13.78
2023-01-13T08:35:11.067Z,11.38
2023-01-13T08:36:11.071Z,8.58
2023-01-13T08:37:11.070Z,9.90
2023-01-13T08:38:11.069Z,9.88
2023-01-13T08:39:11.066Z,14.70
2023-01-13T08:40:11.070Z,12.32
2023-01-13T08:41:14.070Z,12.10
2023-01-13T08:42:11.080Z,15.30
2023-01-13T08:43:11.076Z,10.12
2023-01-13T08:44:11.069Z,7.70
2023-01-13T08:45:11.083Z,20.60
2023-01-13T08:46:11.169Z,11.12
2023-01-13T08:47:11.082Z,8.86
2023-01-13T08:48:11.075Z,11.52
2023-01-13T08:49:11.081Z,8.80
2023-01-13T08:50:11.072Z,13.74
2023-01-13T08:51:11.066Z,6.68
2023-01-13T08:52:11.081Z,9.52
2023-01-13T08:53:11.072Z,8.60
2023-01-13T08:54:11.066Z,8.80
2023-01-13T08:55:11.074Z,10.54
2023-01-13T08:56:11.068Z,8.24
2023-01-13T08:57:11.068Z,11.02
2023-01-13T08:58:15.617Z,14.16
2023-01-13T08:59:20.564Z,15.74
2023-01-13T09:00:11.078Z,15.02
2023-01-13T09:01:13.164Z,11.48
2023-01-13T09:02:14.214Z,12.14
2023-01-13T09:03:11.070Z,9.74
2023-01-13T09:04:18.107Z,7.88
2023-01-13T09:05:11.087Z,12.08
2023-01-13T09:06:11.070Z,5.90
2023-01-13T09:07:11.075Z,12.80
2023-01-13T09:08:11.074Z,15.94
2023-01-13T09:09:11.085Z,19.10
2023-01-13T09:10:11.077Z,8.00
2023-01-13T09:11:19.086Z,9.42
2023-01-13T09:12:15.081Z,13.40
2023-01-13T09:13:15.073Z,10.18
2023-01-13T09:14:11.078Z,11.44
2023-01-13T09:15:11.078Z,9.34
2023-01-13T09:16:11.150Z,7.80
2023-01-13T09:17:11.072Z,10.24
2023-01-13T09:18:11.081Z,14.04
2023-01-13T09:19:11.075Z,14.66
2023-01-13T09:20:11.078Z,12.22
2023-01-13T09:21:12.073Z,5.90
2023-01-13T09:22:14.074Z,9.92
2023-01-13T09:23:11.468Z,19.22
2023-01-13T09:24:11.072Z,9.24
2023-01-13T09:25:11.076Z,10.46
2023-01-13T09:26:11.081Z,10.10
2023-01-13T09:27:11.076Z,12.32
2023-01-13T09:28:11.087Z,12.04
2023-01-13T09:29:11.075Z,12.42
2023-01-13T09:30:11.085Z,14.58
2023-01-13T09:31:11.123Z,9.48
2023-01-13T09:32:13.073Z,10.26
2023-01-13T09:33:15.077Z,9.42
2023-01-13T09:34:20.084Z,19.68
2023-01-13T09:35:11.088Z,10.66
2023-01-13T09:36:11.073Z,10.38
2023-01-13T09:37:11.077Z,16.10
2023-01-13T09:38:11.082Z,11.32
2023-01-13T09:39:11.074Z,9.64
2023-01-13T09:40:18.078Z,9.00
2023-01-13T09:41:23.088Z,21.84
2023-01-13T09:42:23.076Z,11.22
2023-01-13T09:43:20.077Z,14.98
2023-01-13T09:44:16.075Z,11.20
2023-01-13T09:45:16.075Z,9.54
2023-01-13T09:46:21.158Z,10.64
2023-01-13T09:47:19.077Z,6.70
2023-01-13T09:48:18.090Z,13.30
2023-01-13T09:49:18.077Z,12.64
2023-01-13T09:50:19.084Z,9.34
2023-01-13T09:51:16.087Z,10.18
2023-01-13T09:52:18.076Z,18.54
2023-01-13T09:53:14.089Z,7.18
2023-01-13T09:54:21.084Z,9.88
2023-01-13T09:55:18.079Z,9.16
2023-01-13T09:56:12.074Z,7.32
2023-01-13T09:57:13.073Z,14.72
2023-01-13T09:58:17.080Z,11.08
2023-01-13T09:59:13.087Z,6.50
2023-01-13T10:00:20.111Z,14.92
2023-01-13T10:01:23.121Z,10.70
2023-01-13T10:02:19.104Z,7.30
2023-01-13T10:03:19.258Z,9.28
2023-01-13T10:04:14.061Z,9.16
2023-01-13T10:05:17.061Z,10.90
2023-01-13T10:06:19.086Z,3.98
2023-01-13T10:07:14.109Z,8.90
2023-01-13T10:08:19.062Z,9.24
2023-01-13T10:09:17.084Z,7.78
2023-01-13T10:10:17.073Z,5.34
2023-01-13T10:11:20.090Z,11.10
2023-01-13T10:12:20.074Z,12.28
2023-01-13T10:13:21.064Z,3.50
2023-01-13T10:14:19.064Z,13.42
2023-01-13T10:15:15.085Z,11.18
2023-01-13T10:16:21.156Z,12.96
2023-01-13T10:17:19.062Z,8.46
2023-01-13T10:18:22.074Z,13.12
2023-01-13T10:19:21.062Z,8.18
2023-01-13T10:20:19.095Z,4.46
2023-01-13T10:21:19.069Z,8.24
2023-01-13T10:22:21.062Z,7.46
2023-01-13T10:23:19.068Z,9.90
2023-01-13T10:24:19.080Z,11.30
2023-01-13T10:25:19.067Z,7.22
2023-01-13T10:26:21.225Z,8.22
2023-01-13T10:27:19.073Z,8.80
2023-01-13T10:28:14.062Z,9.34
2023-01-13T10:29:19.073Z,10.30
2023-01-13T10:30:18.073Z,5.82
2023-01-13T10:31:13.097Z,12.60
2023-01-13T10:32:11.064Z,10.74
2023-01-13T10:33:15.075Z,7.30
2023-01-13T10:34:11.073Z,13.22
2023-01-13T10:35:11.066Z,9.92
2023-01-13T10:36:17.068Z,9.56
2023-01-13T10:37:19.073Z,11.50
2023-01-13T10:38:18.086Z,16.96
2023-01-13T10:39:15.068Z,15.84
2023-01-13T10:40:17.067Z,6.92
2023-01-13T10:41:19.082Z,8.94
2023-01-13T10:42:14.091Z,8.76
2023-01-13T10:43:11.067Z,8.40
2023-01-13T10:44:18.067Z,13.64
2023-01-13T10:45:21.075Z,11.10
2023-01-13T10:46:14.106Z,8.34
2023-01-13T10:47:19.070Z,11.22
2023-01-13T10:48:14.067Z,10.24
2023-01-13T10:49:19.069Z,9.78
2023-01-13T10:50:21.064Z,10.40
2023-01-13T10:51:19.088Z,11.30
2023-01-13T10:52:21.154Z,6.20
2023-01-13T10:53:19.078Z,11.90
2023-01-13T10:54:21.067Z,8.06
2023-01-13T10:55:19.077Z,9.22
2023-01-13T10:56:16.083Z,9.14
2023-01-13T10:57:19.067Z,7.38
2023-01-13T10:58:16.094Z,16.50
2023-01-13T10:59:19.075Z,8.56
2023-01-13T11:00:19.088Z,8.92
2023-01-13T11:01:19.354Z,9.78
2023-01-13T11:02:25.604Z,10.74
2023-01-13T11:03:20.387Z,8.52
2023-01-13T11:04:21.082Z,13.48
2023-01-13T11:05:21.076Z,7.84
2023-01-13T11:06:15.068Z,7.80
2023-01-13T11:07:19.069Z,9.52
2023-01-13T11:08:18.239Z,8.88
2023-01-13T11:09:19.082Z,4.72
2023-01-13T11:10:17.204Z,5.26
2023-01-13T11:11:19.068Z,12.60
2023-01-13T11:12:19.065Z,6.12
2023-01-13T11:13:18.071Z,5.30
2023-01-13T11:14:23.082Z,9.96
2023-01-13T11:15:14.067Z,13.96
2023-01-13T11:16:15.088Z,5.68
2023-01-13T11:17:21.091Z,6.06
2023-01-13T11:18:19.088Z,8.84
2023-01-13T11:19:18.071Z,7.00
2023-01-13T11:20:20.076Z,7.90
2023-01-13T11:21:19.072Z,9.80
2023-01-13T11:22:19.074Z,7.64
2023-01-13T11:23:21.071Z,5.56
2023-01-13T11:24:23.079Z,11.02
2023-01-13T11:25:19.077Z,10.06
2023-01-13T11:26:16.071Z,8.26
2023-01-13T11:27:18.068Z,5.96
2023-01-13T11:28:21.081Z,12.74
2023-01-13T11:29:17.080Z,15.50
2023-01-13T11:30:21.097Z,8.76
2023-01-13T11:31:18.137Z,14.64
2023-01-13T11:32:19.093Z,6.80
2023-01-13T11:33:21.088Z,9.80
2023-01-13T11:34:19.090Z,7.40
2023-01-13T11:35:17.080Z,15.56
2023-01-13T11:36:20.212Z,7.56
2023-01-13T11:37:19.097Z,10.52
2023-01-13T11:38:19.123Z,7.30
2023-01-13T11:39:19.106Z,8.92
2023-01-13T11:40:20.069Z,5.16
2023-01-13T11:41:21.096Z,8.30
2023-01-13T11:42:23.073Z,14.88
2023-01-13T11:43:21.085Z,11.74
2023-01-13T11:44:19.131Z,9.66
2023-01-13T11:45:20.068Z,8.58
2023-01-13T11:46:11.070Z,7.96
2023-01-13T11:47:12.071Z,11.24
2023-01-13T11:48:17.083Z,10.44
2023-01-13T11:49:16.084Z,15.28
2023-01-13T11:50:18.075Z,10.26
2023-01-13T11:51:21.084Z,6.04
2023-01-13T11:52:21.073Z,9.02
2023-01-13T11:53:19.073Z,7.84
2023-01-13T11:54:23.073Z,7.72
2023-01-13T11:55:20.561Z,7.24
2023-01-13T11:56:19.073Z,6.96
2023-01-13T11:57:21.085Z,11.54
2023-01-13T11:58:19.074Z,10.90
2023-01-13T11:59:21.075Z,9.66
2023-01-13T12:00:21.084Z,6.68
2023-01-13T12:01:18.113Z,8.20
2023-01-13T12:02:19.146Z,11.70
2023-01-13T12:03:21.235Z,8.70
2023-01-13T12:04:21.075Z,6.62
2023-01-13T12:05:19.070Z,6.54
2023-01-13T12:06:19.085Z,10.68
2023-01-13T12:07:25.093Z,6.24
2023-01-13T12:08:21.083Z,7.12
2023-01-13T12:09:21.076Z,6.70
2023-01-13T12:10:21.093Z,11.06
2023-01-13T12:11:21.080Z,9.50
2023-01-13T12:12:24.077Z,7.64
2023-01-13T12:13:21.084Z,9.94
2023-01-13T12:14:19.093Z,5.66
2023-01-13T12:15:19.091Z,5.54
2023-01-13T12:16:17.151Z,9.80
2023-01-13T12:17:18.077Z,4.78
2023-01-13T12:18:19.082Z,7.56
2023-01-13T12:19:23.077Z,7.74
2023-01-13T12:20:19.075Z,11.42
2023-01-13T12:21:21.073Z,9.54
2023-01-13T12:22:20.081Z,7.74
2023-01-13T12:23:19.079Z,9.96
2023-01-13T12:24:21.099Z,12.72
2023-01-13T12:25:20.077Z,6.46
2023-01-13T12:26:12.096Z,11.48
2023-01-13T12:27:19.087Z,8.66
2023-01-13T12:28:16.175Z,9.64
2023-01-13T12:29:16.097Z,7.32
2023-01-13T12:30:23.087Z,6.28
2023-01-13T12:31:11.077Z,6.98
2023-01-13T12:32:16.087Z,7.98
2023-01-13T12:33:19.100Z,20.54
2023-01-13T12:34:19.087Z,8.22
2023-01-13T12:35:21.083Z,7.48
2023-01-13T12:36:19.085Z,12.48
2023-01-13T12:37:21.088Z,9.06
2023-01-13T12:38:19.077Z,10.32
2023-01-13T12:39:19.081Z,6.44
2023-01-13T12:40:19.098Z,7.50
2023-01-13T12:41:19.078Z,7.86
2023-01-13T12:42:25.096Z,10.66
2023-01-13T12:43:19.078Z,13.96
2023-01-13T12:44:15.080Z,5.14
2023-01-13T12:45:20.074Z,5.76
2023-01-13T12:46:19.121Z,4.20
2023-01-13T12:47:19.089Z,8.44
2023-01-13T12:48:19.075Z,6.94
2023-01-13T12:49:19.080Z,9.66
2023-01-13T12:50:19.086Z,6.54
2023-01-13T12:51:19.083Z,5.96
2023-01-13T12:52:16.080Z,11.80
2023-01-13T12:53:19.082Z,4.18
2023-01-13T12:54:19.081Z,11.30
2023-01-13T12:55:13.077Z,7.70
2023-01-13T12:56:19.098Z,9.24
2023-01-13T12:57:19.108Z,5.50
2023-01-13T12:58:15.079Z,11.24
2023-01-13T12:59:21.075Z,7.00
2023-01-13T13:00:16.063Z,11.00
2023-01-13T13:01:14.166Z,7.44
2023-01-13T13:02:21.181Z,8.94
2023-01-13T13:03:19.599Z,6.16
2023-01-13T13:04:12.059Z,8.24